Time;durP1;ratioP1;P1;durP2;ratioP2;P2;SDS_P1;SDS_P2;PMS_P1;PMS_P2;Temp;Humidity;BMP_temperature;BMP_pressure;BME280_temperature;BME280_humidity;BME280_pressure;Samples;Min_cycle;Max_cycle;Signal;HPM_P1;HPM_P2
2021/04/09 00:02:11;;;;;;;1999.90;999.90;;;16.00;97.20;;;;;;5032274;28;20185;-50
2021/04/09 00:04:38;;;;;;;1999.90;999.90;;;15.90;96.90;;;;;;5032157;28;20655;-50
2021/04/09 00:07:06;;;;;;;1999.90;999.90;;;15.90;96.80;;;;;;5032216;28;20166;-50
2021/04/09 00:09:33;;;;;;;1999.90;999.90;;;15.90;96.80;;;;;;5031478;28;20170;-49
2021/04/09 00:12:00;;;;;;;1999.90;999.90;;;15.90;96.80;;;;;;5031731;28;20189;-53
2021/04/09 00:14:27;;;;;;;1999.90;999.90;;;15.80;96.50;;;;;;5032004;28;20640;-54
2021/04/09 00:16:54;;;;;;;1999.90;999.90;;;15.70;96.90;;;;;;5031972;28;20623;-46
2021/04/09 00:19:25;;;;;;;1999.90;999.90;;;15.70;96.90;;;;;;5031697;28;20253;-47
2021/04/09 00:21:52;;;;;;;1999.90;999.90;;;15.60;97.20;;;;;;5031971;28;20551;-49
2021/04/09 00:24:19;;;;;;;1999.90;999.90;;;15.60;97.60;;;;;;5032039;28;20178;-46
2021/04/09 00:26:46;;;;;;;1999.90;999.90;;;15.60;97.50;;;;;;5031982;28;20522;-50
2021/04/09 00:29:13;;;;;;;1999.90;999.90;;;15.60;97.30;;;;;;5031867;28;20170;-50
2021/04/09 00:31:40;;;;;;;1999.90;999.90;;;15.50;97.40;;;;;;5031652;28;20224;-48
2021/04/09 00:34:07;;;;;;;1999.90;999.90;;;15.50;97.40;;;;;;5031770;28;20192;-49
2021/04/09 00:36:35;;;;;;;1999.90;999.90;;;15.40;97.60;;;;;;5031733;28;20644;-49
2021/04/09 00:39:05;;;;;;;1999.90;999.90;;;15.40;97.60;;;;;;5031617;28;20162;-49
2021/04/09 00:41:32;;;;;;;1999.90;999.90;;;15.40;97.90;;;;;;5031652;28;20664;-49
2021/04/09 00:43:58;;;;;;;1999.90;999.90;;;15.30;98.00;;;;;;5031611;28;20176;-50
2021/04/09 00:46:25;;;;;;;1999.90;999.90;;;15.30;98.40;;;;;;5031583;28;20219;-45
2021/04/09 00:48:52;;;;;;;1999.90;999.90;;;15.20;99.00;;;;;;5031449;28;20648;-48
2021/04/09 00:51:21;;;;;;;1999.90;999.90;;;15.00;98.60;;;;;;5031472;28;20243;-49
2021/04/09 00:53:48;;;;;;;1999.90;999.90;;;14.90;99.00;;;;;;5031492;28;20184;-45
2021/04/09 00:56:18;;;;;;;1999.90;999.90;;;14.90;99.40;;;;;;5031404;28;20530;-48
2021/04/09 00:58:45;;;;;;;1999.90;999.90;;;15.00;98.90;;;;;;5031132;28;20186;-46
2021/04/09 01:01:12;;;;;;;1999.90;999.90;;;14.90;99.20;;;;;;5031091;28;20181;-47
2021/04/09 01:03:40;;;;;;;1999.90;999.90;;;14.90;99.40;;;;;;5031225;28;20721;-46
2021/04/09 01:06:07;;;;;;;1999.90;999.90;;;14.90;99.80;;;;;;5031156;28;20587;-48
2021/04/09 01:08:37;;;;;;;1999.90;999.90;;;14.90;99.90;;;;;;5031211;28;20170;-46
2021/04/09 01:11:04;;;;;;;1999.90;999.90;;;15.00;99.90;;;;;;5031137;28;20217;-48
2021/04/09 01:13:31;;;;;;;1999.90;999.90;;;15.10;99.60;;;;;;5031097;28;20170;-50
2021/04/09 01:15:59;;;;;;;1999.90;999.90;;;15.10;99.60;;;;;;5031146;28;20624;-51
2021/04/09 01:18:38;;;;;;;1999.90;999.90;;;15.30;99.20;;;;;;5030687;28;20212;-48
2021/04/09 01:21:17;;;;;;;1999.90;999.90;;;15.30;98.90;;;;;;5030685;28;20158;-46
2021/04/09 01:24:02;;;;;;;1999.90;999.90;;;15.30;98.20;;;;;;5030850;28;20169;-49
2021/04/09 01:26:56;;;;;;;1999.90;999.90;;;15.30;97.90;;;;;;5030798;28;20245;-49
2021/04/09 01:29:41;;;;;;;1999.90;999.90;;;15.10;98.20;;;;;;5030777;28;20166;-49
2021/04/09 01:32:10;;;;;;;1999.90;999.90;;;15.00;98.30;;;;;;5030793;28;20178;-48
2021/04/09 01:34:47;;;;;;;1999.90;999.90;;;14.90;98.60;;;;;;5030742;28;20170;-49
2021/04/09 01:37:18;;;;;;;1999.90;999.90;;;14.80;98.70;;;;;;5030760;28;20154;-48
2021/04/09 01:40:10;;;;;;;1999.90;999.90;;;14.70;98.90;;;;;;5030619;28;20186;-48
2021/04/09 01:42:39;;;;;;;1999.90;999.90;;;14.70;99.10;;;;;;5029441;28;20680;-48
2021/04/09 01:45:09;;;;;;;1999.90;999.90;;;14.80;99.10;;;;;;5030678;28;20177;-46
2021/04/09 01:47:37;;;;;;;1999.90;999.90;;;14.80;99.20;;;;;;5030868;28;20200;-51
2021/04/09 01:50:09;;;;;;;1999.90;999.90;;;14.70;99.30;;;;;;5030528;28;20189;-46
2021/04/09 01:52:36;;;;;;;1999.90;999.90;;;14.70;99.40;;;;;;5030669;28;20163;-49
2021/04/09 01:55:07;;;;;;;1999.90;999.90;;;14.70;99.90;;;;;;5030448;28;20173;-51
2021/04/09 01:57:35;;;;;;;1999.90;999.90;;;14.70;99.90;;;;;;5030497;28;20166;-52
2021/04/09 02:00:04;;;;;;;1999.90;999.90;;;14.70;99.90;;;;;;5030541;28;20173;-50
2021/04/09 02:02:31;;;;;;;1999.90;999.90;;;14.70;99.90;;;;;;5030389;28;20177;-49
2021/04/09 02:05:01;;;;;;;1999.90;999.90;;;14.80;99.50;;;;;;5030461;28;20188;-47
2021/04/09 02:07:31;;;;;;;1999.90;999.90;;;14.80;99.50;;;;;;5030328;28;20508;-45
2021/04/09 02:10:01;;;;;;;1999.90;999.90;;;14.80;99.50;;;;;;5030191;28;20209;-45
2021/04/09 02:12:28;;;;;;;1999.90;999.90;;;14.80;99.30;;;;;;5030331;28;20261;-46
2021/04/09 02:14:57;;;;;;;1999.90;999.90;;;14.80;99.30;;;;;;5030348;28;20227;-48
2021/04/09 02:17:24;;;;;;;1999.90;999.90;;;14.80;99.40;;;;;;5030150;28;20705;-49
2021/04/09 02:19:51;;;;;;;1999.90;999.90;;;14.70;99.50;;;;;;5029798;28;20299;-48
2021/04/09 02:22:19;;;;;;;1999.90;999.90;;;14.70;99.50;;;;;;5029971;28;20175;-46
2021/04/09 02:24:49;;;;;;;1999.90;999.90;;;14.80;99.50;;;;;;5029984;28;20211;-48
2021/04/09 02:27:17;;;;;;;1999.90;999.90;;;14.70;99.50;;;;;;5029882;28;20185;-46
2021/04/09 02:29:44;;;;;;;1999.90;999.90;;;14.70;99.60;;;;;;5029716;28;20231;-47
2021/04/09 02:32:15;;;;;;;1999.90;999.90;;;14.70;99.50;;;;;;5029792;28;20178;-48
2021/04/09 02:34:42;;;;;;;1999.90;999.90;;;14.70;99.40;;;;;;5029106;28;20159;-49
2021/04/09 02:37:09;;;;;;;1999.90;999.90;;;14.70;99.80;;;;;;5029812;28;20165;-46
2021/04/09 02:39:38;;;;;;;1999.90;999.90;;;14.70;99.60;;;;;;5029747;28;20573;-48
2021/04/09 02:42:07;;;;;;;1999.90;999.90;;;14.80;99.30;;;;;;5029829;28;20245;-46
2021/04/09 02:44:36;;;;;;;1999.90;999.90;;;14.80;99.50;;;;;;5029795;28;20170;-48
2021/04/09 02:47:05;;;;;;;1999.90;999.90;;;14.70;99.50;;;;;;5029766;28;20170;-47
2021/04/09 02:49:58;;;;;;;1999.90;999.90;;;14.80;99.30;;;;;;5029681;28;20181;-46
2021/04/09 02:52:34;;;;;;;1999.90;999.90;;;14.80;99.40;;;;;;5029854;28;20162;-48
2021/04/09 02:55:08;;;;;;;1999.90;999.90;;;14.70;99.50;;;;;;5029826;28;20200;-48
2021/04/09 02:57:36;;;;;;;1999.90;999.90;;;14.70;99.50;;;;;;5029761;28;20166;-48
2021/04/09 03:00:07;;;;;;;1999.90;999.90;;;14.80;99.30;;;;;;5029612;28;20174;-46
2021/04/09 03:02:35;;;;;;;1999.90;999.90;;;14.80;99.20;;;;;;5029616;28;20154;-46
2021/04/09 03:05:06;;;;;;;1999.90;999.90;;;14.80;98.90;;;;;;5029716;28;20620;-49
2021/04/09 03:07:42;;;;;;;1999.90;999.90;;;14.70;98.80;;;;;;5029808;28;20215;-52
2021/04/09 03:10:14;;;;;;;1999.90;999.90;;;14.70;99.00;;;;;;5029500;28;20185;-49
2021/04/09 03:12:42;;;;;;;1999.90;999.90;;;14.70;98.80;;;;;;5029866;28;20162;-47
2021/04/09 03:15:15;;;;;;;1999.90;999.90;;;14.70;98.90;;;;;;5029458;28;20171;-48
2021/04/09 03:18:05;;;;;;;1999.90;999.90;;;14.70;98.60;;;;;;5029538;28;20163;-50
2021/04/09 03:20:32;;;;;;;1999.90;999.90;;;14.70;98.70;;;;;;5029629;28;20162;-49
2021/04/09 03:22:59;;;;;;;1999.90;999.90;;;14.70;98.90;;;;;;5029436;28;20178;-48
2021/04/09 03:25:26;;;;;;;1999.90;999.90;;;14.60;99.00;;;;;;5029371;28;20173;-48
2021/04/09 03:27:53;;;;;;;1999.90;999.90;;;14.60;99.30;;;;;;5029360;28;20162;-48
2021/04/09 03:30:21;;;;;;;1999.90;999.90;;;14.70;99.50;;;;;;5029223;28;20249;-47
2021/04/09 03:32:49;;;;;;;1999.90;999.90;;;14.70;99.70;;;;;;5029260;28;20166;-48
2021/04/09 03:35:17;;;;;;;1999.90;999.90;;;14.60;99.70;;;;;;5029160;28;20520;-47
2021/04/09 03:37:44;;;;;;;1999.90;999.90;;;14.60;99.30;;;;;;5029016;28;20162;-44
2021/04/09 03:40:12;;;;;;;1999.90;999.90;;;14.50;99.10;;;;;;5028861;28;20223;-47
2021/04/09 03:42:39;;;;;;;1999.90;999.90;;;14.50;99.10;;;;;;5028968;28;20566;-46
2021/04/09 03:45:07;;;;;;;1999.90;999.90;;;14.60;98.90;;;;;;5029204;28;20216;-44
2021/04/09 03:47:34;;;;;;;1999.90;999.90;;;14.50;98.70;;;;;;5032479;28;20666;-46
2021/04/09 03:50:02;;;;;;;1999.90;999.90;;;14.50;98.80;;;;;;5032356;28;20254;-44
2021/04/09 03:52:30;;;;;;;1999.90;999.90;;;14.50;99.00;;;;;;5032293;28;20170;-46
2021/04/09 03:54:56;;;;;;;1999.90;999.90;;;14.40;99.40;;;;;;5032146;28;20170;-47
2021/04/09 03:57:23;;;;;;;1999.90;999.90;;;14.30;99.20;;;;;;5032105;28;20247;-47
2021/04/09 03:59:50;;;;;;;1999.90;999.90;;;14.30;99.90;;;;;;5032059;28;20177;-47
2021/04/09 04:02:17;;;;;;;1999.90;999.90;;;14.30;99.60;;;;;;5032093;28;20162;-47
2021/04/09 04:04:44;;;;;;;1999.90;999.90;;;14.30;99.80;;;;;;5032238;28;20162;-48
2021/04/09 04:07:10;;;;;;;1999.90;999.90;;;14.40;99.90;;;;;;5032116;28;20715;-47
2021/04/09 04:09:37;;;;;;;1999.90;999.90;;;14.40;99.80;;;;;;5032202;28;20166;-47
2021/04/09 04:12:06;;;;;;;1999.90;999.90;;;14.30;99.80;;;;;;5032227;28;20170;-48
2021/04/09 04:14:33;;;;;;;1999.90;999.90;;;14.20;99.60;;;;;;5032171;28;20194;-48
2021/04/09 04:17:01;;;;;;;1999.90;999.90;;;14.10;99.60;;;;;;5032062;28;20238;-46
2021/04/09 04:19:27;;;;;;;1999.90;999.90;;;14.10;99.70;;;;;;5031774;28;20214;-45
2021/04/09 04:21:54;;;;;;;1999.90;999.90;;;14.10;99.70;;;;;;5031902;28;20177;-48
2021/04/09 04:24:21;;;;;;;1999.90;999.90;;;14.10;99.80;;;;;;5031895;28;20185;-49
2021/04/09 04:26:48;;;;;;;1999.90;999.90;;;14.00;99.90;;;;;;5031864;28;20247;-48
2021/04/09 04:29:15;;;;;;;1999.90;999.90;;;14.00;99.90;;;;;;5031810;28;20169;-48
2021/04/09 04:31:42;;;;;;;1999.90;999.90;;;13.90;99.90;;;;;;5031669;28;20194;-48
2021/04/09 04:34:09;;;;;;;1999.90;999.90;;;14.00;99.90;;;;;;5031756;28;20253;-48
2021/04/09 04:36:35;;;;;;;1999.90;999.90;;;14.10;99.90;;;;;;5031681;28;20202;-48
2021/04/09 04:39:03;;;;;;;1999.90;999.90;;;14.10;99.90;;;;;;5031436;28;20170;-47
2021/04/09 04:41:30;;;;;;;1999.90;999.90;;;14.10;99.90;;;;;;5031563;28;20180;-48
2021/04/09 04:43:58;;;;;;;1999.90;999.90;;;14.00;99.90;;;;;;5031498;28;20239;-48
2021/04/09 04:46:27;;;;;;;1999.90;999.90;;;14.00;99.90;;;;;;5031619;28;20226;-48
2021/04/09 04:48:54;;;;;;;1999.90;999.90;;;14.00;99.90;;;;;;5031457;28;20224;-50
2021/04/09 04:51:21;;;;;;;1999.90;999.90;;;14.00;99.90;;;;;;5031447;28;20193;-47
2021/04/09 04:53:48;;;;;;;1999.90;999.90;;;14.00;99.80;;;;;;5031309;28;20172;-48
2021/04/09 04:56:15;;;;;;;1999.90;999.90;;;13.90;99.50;;;;;;5030921;28;20253;-48
2021/04/09 04:58:41;;;;;;;1999.90;999.90;;;13.80;99.60;;;;;;5031436;28;20223;-46
2021/04/09 05:01:08;;;;;;;1999.90;999.90;;;13.80;99.80;;;;;;5031364;28;20166;-44
2021/04/09 05:03:35;;;;;;;1999.90;999.90;;;13.80;99.90;;;;;;5031179;28;20215;-48
2021/04/09 05:06:02;;;;;;;1999.90;999.90;;;13.80;99.70;;;;;;5031159;28;20174;-49
2021/04/09 05:08:28;;;;;;;1999.90;999.90;;;13.80;99.90;;;;;;5031173;28;20167;-44
2021/04/09 05:10:55;;;;;;;1999.90;999.90;;;13.70;99.90;;;;;;5031119;28;20201;-48
2021/04/09 05:13:22;;;;;;;1999.90;999.90;;;13.80;99.90;;;;;;5031134;28;20166;-49
2021/04/09 05:15:49;;;;;;;1999.90;999.90;;;13.80;99.90;;;;;;5031129;28;20257;-48
2021/04/09 05:18:16;;;;;;;1999.90;999.90;;;13.90;99.90;;;;;;5030762;28;20202;-48
2021/04/09 05:20:43;;;;;;;1999.90;999.90;;;13.80;99.90;;;;;;5031389;28;20166;-47
2021/04/09 05:23:10;;;;;;;1999.90;999.90;;;13.90;99.90;;;;;;5031009;28;20187;-46
2021/04/09 05:25:36;;;;;;;1999.90;999.90;;;13.80;99.90;;;;;;5030823;28;20212;-51
2021/04/09 05:28:04;;;;;;;1999.90;999.90;;;13.60;99.90;;;;;;5030743;28;20165;-45
2021/04/09 05:30:31;;;;;;;1999.90;999.90;;;13.50;99.90;;;;;;5030397;28;20602;-47
2021/04/09 05:32:59;;;;;;;1999.90;999.90;;;13.50;99.90;;;;;;5030641;28;20215;-48
2021/04/09 05:35:26;;;;;;;1999.90;999.90;;;13.60;99.90;;;;;;5030544;28;20566;-46
2021/04/09 05:37:53;;;;;;;1999.90;999.90;;;13.70;99.90;;;;;;5030350;28;20166;-46
2021/04/09 05:40:20;;;;;;;1999.90;999.90;;;13.70;99.90;;;;;;5030418;28;20177;-47
2021/04/09 05:42:55;;;;;;;1999.90;999.90;;;13.70;99.90;;;;;;5030125;28;20170;-48
2021/04/09 05:45:22;;;;;;;1999.90;999.90;;;13.80;99.90;;;;;;5030267;28;20638;-47
2021/04/09 05:47:49;;;;;;;1999.90;999.90;;;13.80;99.90;;;;;;5030074;28;20248;-47
2021/04/09 05:50:16;;;;;;;1999.90;999.90;;;13.90;99.90;;;;;;5029837;28;20213;-44
2021/04/09 05:52:43;;;;;;;1999.90;999.90;;;13.90;99.90;;;;;;5030360;28;20170;-44
2021/04/09 05:55:10;;;;;;;1999.90;999.90;;;14.00;99.90;;;;;;5030253;28;20215;-53
2021/04/09 05:57:37;;;;;;;1999.90;999.90;;;14.00;99.90;;;;;;5030147;28;20219;-48
2021/04/09 06:00:07;;;;;;;1999.90;999.90;;;14.00;99.90;;;;;;5029674;28;20184;-47
2021/04/09 06:02:35;;;;;;;1999.90;999.90;;;14.10;99.90;;;;;;5028763;28;20592;-49
2021/04/09 06:05:02;;;;;;;1999.90;999.90;;;14.20;99.90;;;;;;5052067;27;20177;-44
2021/04/09 06:07:28;;;;;;;1999.90;999.90;;;14.40;99.90;;;;;;5057809;27;20174;-49
2021/04/09 06:09:55;;;;;;;1999.90;999.90;;;14.90;99.30;;;;;;5027554;28;20284;-49
2021/04/09 06:12:22;;;;;;;1999.90;999.90;;;15.20;98.80;;;;;;5028746;28;20231;-49
2021/04/09 06:14:51;;;;;;;1999.90;999.90;;;15.50;98.20;;;;;;5028668;28;20174;-51
2021/04/09 06:17:18;;;;;;;1999.90;999.90;;;15.70;97.70;;;;;;5029484;28;20177;-56
2021/04/09 06:19:47;;;;;;;1999.90;999.90;;;15.90;97.20;;;;;;5020222;28;20275;-50
2021/04/09 06:22:15;;;;;;;1999.90;999.90;;;16.00;96.70;;;;;;5028286;28;20173;-47
2021/04/09 06:24:42;;;;;;;1999.90;999.90;;;16.20;96.20;;;;;;5028893;28;20264;-49
2021/04/09 06:27:12;;;;;;;1999.90;999.90;;;16.20;96.20;;;;;;5029355;28;20174;-47
2021/04/09 06:29:39;;;;;;;1999.90;999.90;;;16.30;96.10;;;;;;5028931;28;20185;-48
2021/04/09 06:32:06;;;;;;;1999.90;999.90;;;16.50;95.80;;;;;;5028692;28;20189;-47
2021/04/09 06:34:33;;;;;;;1999.90;999.90;;;16.60;95.40;;;;;;5065559;28;20206;-46
2021/04/09 06:37:00;;;;;;;1999.90;999.90;;;16.80;95.10;;;;;;5028498;28;20180;-51
2021/04/09 06:39:27;;;;;;;1999.90;999.90;;;16.80;95.00;;;;;;5028434;28;20574;-48
2021/04/09 06:41:54;;;;;;;1999.90;999.90;;;16.80;95.10;;;;;;5028832;28;20211;-46
2021/04/09 06:44:21;;;;;;;1999.90;999.90;;;16.90;94.90;;;;;;5028616;28;20234;-43
2021/04/09 06:46:48;;;;;;;1999.90;999.90;;;17.00;94.90;;;;;;5028962;28;20181;-48
2021/04/09 06:49:15;;;;;;;1999.90;999.90;;;17.10;95.10;;;;;;5029416;28;20647;-46
2021/04/09 06:51:48;;;;;;;1999.90;999.90;;;17.20;95.00;;;;;;5028410;28;20265;-47
2021/04/09 06:54:16;;;;;;;1999.90;999.90;;;17.30;94.90;;;;;;5029140;28;20256;-44
2021/04/09 06:56:45;;;;;;;1999.90;999.90;;;17.40;94.50;;;;;;5029037;28;20651;-49
2021/04/09 06:59:18;;;;;;;1999.90;999.90;;;17.60;94.60;;;;;;5028950;28;20174;-49
2021/04/09 07:01:46;;;;;;;1999.90;999.90;;;17.70;94.10;;;;;;5028318;28;20219;-46
2021/04/09 07:04:14;;;;;;;1999.90;999.90;;;17.80;93.70;;;;;;5028956;28;20212;-49
2021/04/09 07:06:41;;;;;;;1999.90;999.90;;;17.90;93.50;;;;;;5028382;28;20187;-45
2021/04/09 07:09:08;;;;;;;1999.90;999.90;;;18.10;93.90;;;;;;5035583;28;20174;-47
2021/04/09 07:11:38;;;;;;;1999.90;999.90;;;18.40;93.10;;;;;;5028160;28;20238;-47
2021/04/09 07:14:05;;;;;;;1999.90;999.90;;;18.80;92.40;;;;;;5028067;28;20185;-54
2021/04/09 07:16:33;;;;;;;1999.90;999.90;;;18.90;91.70;;;;;;5028630;28;20163;-48
2021/04/09 07:19:03;;;;;;;1999.90;999.90;;;18.80;91.80;;;;;;5008874;28;20215;-48
2021/04/09 07:21:38;;;;;;;1999.90;999.90;;;18.80;91.70;;;;;;5012092;28;20163;-47
2021/04/09 07:24:14;;;;;;;1999.90;999.90;;;19.00;91.30;;;;;;5081731;28;20171;-48
2021/04/09 07:26:46;;;;;;;1999.90;999.90;;;19.10;90.90;;;;;;5110944;28;20194;-49
2021/04/09 07:29:31;;;;;;;1999.90;999.90;;;19.10;90.50;;;;;;5013997;28;20228;-47
2021/04/09 07:32:01;;;;;;;1999.90;999.90;;;19.20;90.50;;;;;;5030243;28;20210;-48
2021/04/09 07:35:03;;;;;;;1999.90;999.90;;;19.40;90.10;;;;;;5024919;28;20180;-53
2021/04/09 07:37:47;;;;;;;1999.90;999.90;;;19.70;90.00;;;;;;5032035;28;20165;-49
2021/04/09 07:40:19;;;;;;;1999.90;999.90;;;20.10;87.80;;;;;;5033621;28;20667;-47
2021/04/09 07:42:46;;;;;;;1999.90;999.90;;;20.40;86.30;;;;;;5043530;27;20613;-61
2021/04/09 07:45:15;;;;;;;1999.90;999.90;;;20.60;85.40;;;;;;5039902;28;20174;-67
2021/04/09 07:48:01;;;;;;;1999.90;999.90;;;20.70;84.80;;;;;;5037708;28;20174;-50
2021/04/09 07:50:47;;;;;;;1999.90;999.90;;;20.70;83.40;;;;;;5031420;28;20224;-55
2021/04/09 07:53:47;;;;;;;1999.90;999.90;;;20.80;83.50;;;;;;5053681;27;20180;-48
2021/04/09 07:56:18;;;;;;;1999.90;999.90;;;21.10;83.00;;;;;;5048484;27;20214;-45
2021/04/09 07:58:46;;;;;;;1999.90;999.90;;;21.40;81.60;;;;;;5049655;28;20173;-53
2021/04/09 08:01:26;;;;;;;1999.90;999.90;;;21.50;80.30;;;;;;5051178;28;20177;-52
2021/04/09 08:03:57;;;;;;;1999.90;999.90;;;21.40;79.90;;;;;;5044955;28;20169;-46
2021/04/09 08:06:34;;;;;;;1999.90;999.90;;;21.90;78.80;;;;;;5034942;28;20173;-47
2021/04/09 08:09:01;;;;;;;1999.90;999.90;;;22.40;77.10;;;;;;5031567;28;20186;-51
2021/04/09 08:11:39;;;;;;;1999.90;999.90;;;23.20;73.10;;;;;;5126499;27;20194;-51
2021/04/09 08:14:23;;;;;;;1999.90;999.90;;;23.80;70.50;;;;;;5135632;27;20294;-57
2021/04/09 08:16:51;;;;;;;1999.90;999.90;;;24.10;68.60;;;;;;5104269;27;20177;-53
2021/04/09 08:19:24;;;;;;;1999.90;999.90;;;24.30;66.80;;;;;;5031161;28;20218;-47
2021/04/09 08:21:57;;;;;;;1999.90;999.90;;;24.60;65.40;;;;;;5031066;28;20176;-53
2021/04/09 08:24:31;;;;;;;1999.90;999.90;;;24.60;64.80;;;;;;5031510;28;20241;-48
2021/04/09 08:26:59;;;;;;;1999.90;999.90;;;25.10;63.90;;;;;;5030953;28;20534;-47
2021/04/09 08:29:28;;;;;;;1999.90;999.90;;;25.70;62.80;;;;;;5031253;28;20275;-45
2021/04/09 08:31:55;;;;;;;1999.90;999.90;;;26.20;59.40;;;;;;5030072;28;20202;-47
2021/04/09 08:34:22;;;;;;;1999.90;999.90;;;26.10;59.00;;;;;;5030736;28;20166;-43
2021/04/09 08:36:51;;;;;;;1999.90;999.90;;;25.70;58.40;;;;;;5030841;28;20186;-44
2021/04/09 08:39:18;;;;;;;1999.90;999.90;;;25.80;59.50;;;;;;5030784;28;20319;-48
2021/04/09 08:41:50;;;;;;;1999.90;999.90;;;25.80;58.60;;;;;;5073914;27;20269;-45
2021/04/09 08:44:17;;;;;;;1999.90;999.90;;;25.80;59.00;;;;;;5135078;27;20167;-44
2021/04/09 08:46:45;;;;;;;1999.90;999.90;;;26.20;57.90;;;;;;5099146;27;20178;-45
2021/04/09 08:49:14;;;;;;;1999.90;999.90;;;25.70;57.90;;;;;;5030815;28;20178;-45
2021/04/09 08:51:43;;;;;;;1999.90;999.90;;;26.40;56.90;;;;;;5030165;28;20270;-45
2021/04/09 08:54:16;;;;;;;1999.90;999.90;;;27.10;55.40;;;;;;5030973;28;20581;-41
2021/04/09 08:56:43;;;;;;;1999.90;999.90;;;27.60;53.60;;;;;;5030760;28;20222;-44
2021/04/09 08:59:10;;;;;;;1999.90;999.90;;;26.30;54.50;;;;;;5030722;28;20376;-47
2021/04/09 09:01:37;;;;;;;1999.90;999.90;;;26.80;54.40;;;;;;5030901;28;20162;-39
2021/04/09 09:04:22;;;;;;;1999.90;999.90;;;27.10;53.30;;;;;;5030413;28;20166;-42
2021/04/09 09:06:50;;;;;;;1999.90;999.90;;;26.30;54.00;;;;;;5052290;27;20617;-37
2021/04/09 09:09:35;;;;;;;1999.90;999.90;;;26.10;55.50;;;;;;5068051;27;20181;-37
2021/04/09 09:12:03;;;;;;;1999.90;999.90;;;26.80;54.60;;;;;;5036002;28;20241;-37
2021/04/09 09:14:36;;;;;;;1999.90;999.90;;;27.40;53.20;;;;;;5113022;27;20166;-37
2021/04/09 09:17:21;;;;;;;1999.90;999.90;;;27.90;51.60;;;;;;5086647;27;20208;-37
2021/04/09 09:20:03;;;;;;;1999.90;999.90;;;28.20;50.60;;;;;;5030406;28;20712;-41
2021/04/09 09:22:44;;;;;;;1999.90;999.90;;;28.20;49.50;;;;;;5030324;28;20170;-40
2021/04/09 09:25:11;;;;;;;1999.90;999.90;;;28.50;49.00;;;;;;5030570;28;20181;-38
2021/04/09 09:27:53;;;;;;;1999.90;999.90;;;29.10;47.30;;;;;;5030917;28;20573;-38
2021/04/09 09:30:26;;;;;;;1999.90;999.90;;;29.40;46.70;;;;;;5030085;28;20188;-41
2021/04/09 09:33:23;;;;;;;1999.90;999.90;;;29.60;44.90;;;;;;5076817;27;20634;-45
2021/04/09 09:36:03;;;;;;;1999.90;999.90;;;29.10;45.40;;;;;;5029739;28;20225;-48
2021/04/09 09:38:54;;;;;;;1999.90;999.90;;;29.40;45.10;;;;;;5050144;28;20170;-45
2021/04/09 09:41:41;;;;;;;1999.90;999.90;;;29.50;44.80;;;;;;5050124;28;20169;-44
2021/04/09 09:44:31;;;;;;;1999.90;999.90;;;29.80;44.40;;;;;;5032943;28;20157;-46
2021/04/09 09:47:00;;;;;;;1999.90;999.90;;;29.90;43.20;;;;;;5102319;27;20219;-37
2021/04/09 09:49:28;;;;;;;1999.90;999.90;;;28.50;45.90;;;;;;5028795;28;20201;-39
2021/04/09 09:51:56;;;;;;;1999.90;999.90;;;28.80;46.00;;;;;;5029987;28;20225;-40
2021/04/09 09:54:29;;;;;;;1999.90;999.90;;;29.30;44.70;;;;;;5029981;28;20177;-40
2021/04/09 09:56:57;;;;;;;1999.90;999.90;;;29.70;44.50;;;;;;5113719;27;20196;-40
2021/04/09 09:59:26;;;;;;;1999.90;999.90;;;30.00;43.00;;;;;;5133509;27;20174;-43
2021/04/09 10:01:56;;;;;;;1999.90;999.90;;;30.20;42.80;;;;;;5030302;28;20182;-40
2021/04/09 10:04:23;;;;;;;1999.90;999.90;;;29.90;42.30;;;;;;5029614;28;20253;-40
2021/04/09 10:06:54;;;;;;;1999.90;999.90;;;29.50;43.60;;;;;;5029920;28;20166;-44
2021/04/09 10:09:24;;;;;;;1999.90;999.90;;;29.80;42.80;;;;;;5029897;28;20257;-45
2021/04/09 10:11:51;;;;;;;1999.90;999.90;;;30.30;42.00;;;;;;5029062;28;20201;-43
2021/04/09 10:14:18;;;;;;;1999.90;999.90;;;30.50;41.50;;;;;;5044829;28;20169;-39
2021/04/09 10:16:45;;;;;;;1999.90;999.90;;;30.50;41.00;;;;;;5037895;28;20189;-43
2021/04/09 10:19:12;;;;;;;1999.90;999.90;;;30.70;41.20;;;;;;5029415;28;20579;-47
2021/04/09 10:21:41;;;;;;;1999.90;999.90;;;30.90;41.00;;;;;;5029794;28;20185;-41
2021/04/09 10:24:14;;;;;;;1999.90;999.90;;;30.20;41.50;;;;;;5026797;28;20209;-39
2021/04/09 10:26:53;;;;;;;1999.90;999.90;;;29.80;42.30;;;;;;5041066;28;20173;-39
2021/04/09 10:29:20;;;;;;;1999.90;999.90;;;30.20;42.20;;;;;;5044987;28;20177;-40
2021/04/09 10:31:47;;;;;;;1999.90;999.90;;;30.80;41.20;;;;;;5032213;28;20223;-42
2021/04/09 10:34:18;;;;;;;1999.90;999.90;;;30.60;40.70;;;;;;5029510;28;20162;-48
2021/04/09 10:36:46;;;;;;;1999.90;999.90;;;30.90;41.10;;;;;;5028949;28;20307;-46
2021/04/09 10:39:15;;;;;;;1999.90;999.90;;;29.70;41.00;;;;;;5029072;28;20640;-55
2021/04/09 10:41:48;;;;;;;1999.90;999.90;;;28.80;42.60;;;;;;5029445;28;20180;-50
2021/04/09 10:44:17;;;;;;;1999.90;999.90;;;28.50;43.90;;;;;;5029440;28;20158;-46
2021/04/09 10:46:54;;;;;;;1999.90;999.90;;;28.80;43.80;;;;;;5047271;28;20175;-48
2021/04/09 10:49:23;;;;;;;1999.90;999.90;;;29.10;43.10;;;;;;5113009;28;20154;-49
2021/04/09 10:52:04;;;;;;;1999.90;999.90;;;29.70;43.20;;;;;;5112656;28;20281;-53
2021/04/09 10:54:33;;;;;;;1999.90;999.90;;;29.50;42.60;;;;;;5108185;28;20232;-50
2021/04/09 10:57:09;;;;;;;1999.90;999.90;;;29.70;42.70;;;;;;5029471;28;20177;-47
2021/04/09 10:59:44;;;;;;;1999.90;999.90;;;29.80;42.50;;;;;;5032705;28;20615;-41
2021/04/09 11:02:17;;;;;;;1999.90;999.90;;;30.10;41.40;;;;;;5032094;28;20186;-45
2021/04/09 11:04:53;;;;;;;1999.90;999.90;;;30.40;41.40;;;;;;5030580;28;20226;-43
2021/04/09 11:07:20;;;;;;;1999.90;999.90;;;30.60;41.30;;;;;;5032249;28;20178;-46
2021/04/09 11:09:50;;;;;;;1999.90;999.90;;;30.80;41.20;;;;;;5032772;28;20182;-44
2021/04/09 11:12:24;;;;;;;1999.90;999.90;;;29.90;41.30;;;;;;5032374;28;20176;-38
2021/04/09 11:15:09;;;;;;;1999.90;999.90;;;30.00;42.40;;;;;;5028972;28;20235;-48
2021/04/09 11:17:38;;;;;;;1999.90;999.90;;;30.30;41.60;;;;;;5032572;28;20532;-40
2021/04/09 11:20:28;;;;;;;1999.90;999.90;;;30.70;40.20;;;;;;5033862;28;20579;-41
2021/04/09 11:23:05;;;;;;;1999.90;999.90;;;29.80;40.90;;;;;;5045250;27;20249;-36
2021/04/09 11:25:40;;;;;;;1999.90;999.90;;;29.80;41.70;;;;;;5031992;28;20174;-52
2021/04/09 11:28:09;;;;;;;1999.90;999.90;;;30.00;41.10;;;;;;5096460;27;20556;-46
2021/04/09 11:30:37;;;;;;;1999.90;999.90;;;30.10;41.70;;;;;;5137125;27;20182;-45
2021/04/09 11:33:06;;;;;;;1999.90;999.90;;;30.30;40.70;;;;;;5137242;27;20171;-46
2021/04/09 11:35:36;;;;;;;1999.90;999.90;;;30.60;40.20;;;;;;5136829;27;20534;-46
2021/04/09 11:38:12;;;;;;;1999.90;999.90;;;30.60;39.50;;;;;;5137040;27;20216;-46
2021/04/09 11:40:42;;;;;;;1999.90;999.90;;;29.90;40.70;;;;;;5137095;27;20215;-49
2021/04/09 11:43:11;;;;;;;1999.90;999.90;;;30.30;40.40;;;;;;5137157;27;20177;-47
2021/04/09 11:45:49;;;;;;;1999.90;999.90;;;30.30;40.30;;;;;;5136817;27;20171;-49
2021/04/09 11:48:33;;;;;;;1999.90;999.90;;;30.80;39.40;;;;;;5136291;27;20635;-50
2021/04/09 11:51:22;;;;;;;1999.90;999.90;;;30.80;39.00;;;;;;5136130;27;20278;-48
2021/04/09 11:54:13;;;;;;;1999.90;999.90;;;31.00;39.30;;;;;;5137007;27;20558;-47
2021/04/09 11:56:45;;;;;;;1999.90;999.90;;;31.10;38.70;;;;;;5137398;27;20184;-48
2021/04/09 11:59:14;;;;;;;1999.90;999.90;;;31.10;38.40;;;;;;5136968;27;20700;-54
2021/04/09 12:01:42;;;;;;;1999.90;999.90;;;30.90;38.30;;;;;;5137050;27;20632;-51
2021/04/09 12:04:36;;;;;;;1999.90;999.90;;;30.70;38.10;;;;;;5136864;27;20261;-50
2021/04/09 12:07:05;;;;;;;1999.90;999.90;;;30.20;38.80;;;;;;5135470;27;20635;-48
2021/04/09 12:09:32;;;;;;;1999.90;999.90;;;29.80;40.00;;;;;;5136441;27;20167;-53
2021/04/09 12:11:59;;;;;;;1999.90;999.90;;;30.30;39.20;;;;;;5136034;27;20281;-46
2021/04/09 12:14:44;;;;;;;1999.90;999.90;;;30.50;38.70;;;;;;5136397;27;20253;-46
2021/04/09 12:17:13;;;;;;;1999.90;999.90;;;30.70;38.20;;;;;;5136463;27;20509;-46